Airfield :
LOGIN :

Register | Disclaimer

   EN    FR    IT 

 










Legend :    VFR   Marginal VFR   IFR   Intensive IFR   Very Intensive IFR
Visi :
Ceiling :
>= 8 km
>= 3000ft
5 to 8 km
1000 to 3000 ft
1500m to 5 km
500 to 1000 ft
800 to 1500m
200 to 500 ft
< 800m
< 200 ft
Symbols :   Thunderstorms  Fog  Heavy snow  Heavy precipitations  Wind > 20 kt
SIGMETs :     Misc.  Thunderstorms  Icing  Turbulence  Mountain Waves  Volcanic Ashes







- Airport Elevation : 46 ft
- IATA code : SNN


EINN - Shannon

CURRENT METAR :
  • 250430Z 22015KT 9999 FEW014 SCT018CB BKN043 08/06 Q1009 NOSIG

EXPIRED METARs :
  • 250400Z 22012KT 9999 FEW015 FEW018CB 08/05 Q1009 NOSIG
  • 250330Z 22013KT 9999 FEW013 FEW018CB SCT100 08/05 Q1009 NOSIG
  • 250300Z 22013KT 9999 FEW013 FEW018CB SCT036 08/05 Q1009 NOSIG
  • 250230Z 22014KT 9999 FEW013 FEW018CB SCT047 08/06 Q1009 NOSIG
  • 250200Z 22013KT 9999 FEW013 SCT033 09/06 Q1010 NOSIG
  • 250130Z 22013KT 9999 FEW016 SCT024 BKN050 09/06 Q1010 NOSIG

TAF TAF EINN
Valid from the 25 at 00:00 until the 26 at 00:00 UTC


242300Z 2500/2524 23012KT 9999 FEW018 SCT025
BECMG 2506/2508 25017KT
TEMPO 2506/2508 26018G28KT -SHRA SCT018CB
TEMPO 2508/2519 26020G36KT -SHRA SCT018CB
PROB30
TEMPO 2509/2514 4000 TSRA
BECMG 2520/2522 25012KT
No reported NOTAMs for that airfield.



MET'MAP, your aeronautical weather chart ! - Copyright ORBIFLY December 2007 - Disclaimer

ORBIFLY MET'MAP TEAM :

Programming & Development : Alexandra Zaïnal
Concept & Development : Baudouin d'Aumeries
Co-Development & Prog : Marc-Olivier Méhu
Technical & hardware support : Manuel Goepfert

Contact : metmap@orbifly.com




SOURCES & CREDITS :

   NOAA